Terminal Aerodrome Forecast
Issued by NWS Knoxville/Tri Cities, TN

Home | Current Version | Previous Version | Text Only | Print | Product List | Glossary On
Versions: 1 2 3 4 5 6 7 8 9 10 11 12 13 14 15 16 17 18 19
000
FTUS44 KMRX 191720
TAFTYS
TAF
KTYS 191720Z 1918/2018 VRB04KT P6SM OVC035
     FM192100 05006KT P6SM VCSH OVC035
     FM200200 11005KT 6SM -RA BR OVC030
     FM200900 20006KT 4SM -RA BR OVC015
     FM201600 23005KT 4SM BR OVC007=

USA.gov is the U.S. government's official web portal to all federal, state and local government web resources and services.